sensor_id;sensor_type;location;lat;lon;timestamp;P1;durP1;ratioP1;P2;durP2;ratioP2
17189;SDS011;8710;49.880;8.272;2022-08-21T00:00:19;9.33;;;3.40;;
17189;SDS011;8710;49.880;8.272;2022-08-21T00:02:48;7.53;;;3.73;;
17189;SDS011;8710;49.880;8.272;2022-08-21T00:05:16;7.77;;;3.87;;
17189;SDS011;8710;49.880;8.272;2022-08-21T00:07:44;9.07;;;4.00;;
17189;SDS011;8710;49.880;8.272;2022-08-21T00:10:11;10.17;;;3.90;;
17189;SDS011;8710;49.880;8.272;2022-08-21T00:12:39;5.37;;;3.60;;
17189;SDS011;8710;49.880;8.272;2022-08-21T00:15:07;8.63;;;3.80;;
17189;SDS011;8710;49.880;8.272;2022-08-21T00:17:35;7.23;;;3.70;;
17189;SDS011;8710;49.880;8.272;2022-08-21T00:20:06;8.27;;;3.80;;
17189;SDS011;8710;49.880;8.272;2022-08-21T00:22:34;6.53;;;3.80;;
17189;SDS011;8710;49.880;8.272;2022-08-21T00:25:01;7.63;;;3.60;;
17189;SDS011;8710;49.880;8.272;2022-08-21T00:27:28;8.70;;;3.83;;
17189;SDS011;8710;49.880;8.272;2022-08-21T00:29:55;8.70;;;3.73;;
17189;SDS011;8710;49.880;8.272;2022-08-21T00:32:23;8.03;;;4.07;;
17189;SDS011;8710;49.880;8.272;2022-08-21T00:34:52;6.63;;;4.00;;
17189;SDS011;8710;49.880;8.272;2022-08-21T00:37:20;4.63;;;2.90;;
17189;SDS011;8710;49.880;8.272;2022-08-21T00:39:48;8.90;;;3.07;;
17189;SDS011;8710;49.880;8.272;2022-08-21T00:42:15;6.47;;;3.13;;
17189;SDS011;8710;49.880;8.272;2022-08-21T00:44:42;5.97;;;3.10;;
17189;SDS011;8710;49.880;8.272;2022-08-21T00:47:10;9.10;;;3.50;;
17189;SDS011;8710;49.880;8.272;2022-08-21T00:49:38;6.77;;;2.93;;
17189;SDS011;8710;49.880;8.272;2022-08-21T00:52:07;6.43;;;3.23;;
17189;SDS011;8710;49.880;8.272;2022-08-21T00:54:39;5.33;;;2.93;;
17189;SDS011;8710;49.880;8.272;2022-08-21T00:57:09;7.77;;;3.33;;
17189;SDS011;8710;49.880;8.272;2022-08-21T00:59:41;5.40;;;3.10;;
17189;SDS011;8710;49.880;8.272;2022-08-21T01:02:11;5.43;;;3.07;;
17189;SDS011;8710;49.880;8.272;2022-08-21T01:04:39;6.63;;;2.83;;
17189;SDS011;8710;49.880;8.272;2022-08-21T01:07:06;8.73;;;3.53;;
17189;SDS011;8710;49.880;8.272;2022-08-21T01:09:33;4.90;;;3.07;;
17189;SDS011;8710;49.880;8.272;2022-08-21T01:12:03;5.30;;;3.00;;
17189;SDS011;8710;49.880;8.272;2022-08-21T01:14:30;6.97;;;2.80;;
17189;SDS011;8710;49.880;8.272;2022-08-21T01:16:57;6.20;;;2.93;;
17189;SDS011;8710;49.880;8.272;2022-08-21T01:19:25;5.37;;;2.73;;
17189;SDS011;8710;49.880;8.272;2022-08-21T01:21:54;5.67;;;3.13;;
17189;SDS011;8710;49.880;8.272;2022-08-21T01:24:21;7.20;;;3.13;;
17189;SDS011;8710;49.880;8.272;2022-08-21T01:26:48;5.97;;;3.13;;
17189;SDS011;8710;49.880;8.272;2022-08-21T01:29:16;6.77;;;2.97;;
17189;SDS011;8710;49.880;8.272;2022-08-21T01:31:52;6.23;;;3.30;;
17189;SDS011;8710;49.880;8.272;2022-08-21T01:34:19;7.07;;;3.10;;
17189;SDS011;8710;49.880;8.272;2022-08-21T01:36:46;6.30;;;3.30;;
17189;SDS011;8710;49.880;8.272;2022-08-21T01:39:15;6.90;;;3.00;;
17189;SDS011;8710;49.880;8.272;2022-08-21T01:41:42;8.03;;;3.40;;
17189;SDS011;8710;49.880;8.272;2022-08-21T01:44:09;7.53;;;3.57;;
17189;SDS011;8710;49.880;8.272;2022-08-21T01:46:37;6.77;;;3.23;;
17189;SDS011;8710;49.880;8.272;2022-08-21T01:49:04;8.37;;;3.20;;
17189;SDS011;8710;49.880;8.272;2022-08-21T01:51:31;6.30;;;3.43;;
17189;SDS011;8710;49.880;8.272;2022-08-21T01:53:58;8.83;;;3.80;;
17189;SDS011;8710;49.880;8.272;2022-08-21T01:56:27;6.53;;;3.50;;
17189;SDS011;8710;49.880;8.272;2022-08-21T01:58:54;7.37;;;3.50;;
17189;SDS011;8710;49.880;8.272;2022-08-21T02:01:21;6.57;;;3.27;;
17189;SDS011;8710;49.880;8.272;2022-08-21T02:03:49;8.27;;;3.80;;
17189;SDS011;8710;49.880;8.272;2022-08-21T02:06:16;6.63;;;3.30;;
17189;SDS011;8710;49.880;8.272;2022-08-21T02:08:43;6.23;;;3.57;;
17189;SDS011;8710;49.880;8.272;2022-08-21T02:11:10;8.03;;;3.57;;
17189;SDS011;8710;49.880;8.272;2022-08-21T02:13:39;6.73;;;3.70;;
17189;SDS011;8710;49.880;8.272;2022-08-21T02:16:06;8.80;;;4.00;;
17189;SDS011;8710;49.880;8.272;2022-08-21T02:18:33;6.17;;;4.30;;
17189;SDS011;8710;49.880;8.272;2022-08-21T02:21:01;6.57;;;3.90;;
17189;SDS011;8710;49.880;8.272;2022-08-21T02:23:29;8.10;;;3.87;;
17189;SDS011;8710;49.880;8.272;2022-08-21T02:25:56;7.07;;;3.70;;
17189;SDS011;8710;49.880;8.272;2022-08-21T02:28:23;9.03;;;3.60;;
17189;SDS011;8710;49.880;8.272;2022-08-21T02:30:53;4.80;;;3.40;;
17189;SDS011;8710;49.880;8.272;2022-08-21T02:33:20;5.60;;;3.60;;
17189;SDS011;8710;49.880;8.272;2022-08-21T02:35:48;6.07;;;3.40;;
17189;SDS011;8710;49.880;8.272;2022-08-21T02:38:17;8.87;;;3.57;;
17189;SDS011;8710;49.880;8.272;2022-08-21T02:40:46;7.07;;;3.90;;
17189;SDS011;8710;49.880;8.272;2022-08-21T02:43:14;7.37;;;4.03;;
17189;SDS011;8710;49.880;8.272;2022-08-21T02:45:43;6.60;;;3.80;;
17189;SDS011;8710;49.880;8.272;2022-08-21T02:48:13;9.43;;;4.20;;
17189;SDS011;8710;49.880;8.272;2022-08-21T02:50:42;8.00;;;3.47;;
17189;SDS011;8710;49.880;8.272;2022-08-21T02:53:12;7.30;;;3.70;;
17189;SDS011;8710;49.880;8.272;2022-08-21T02:55:41;8.13;;;4.27;;
17189;SDS011;8710;49.880;8.272;2022-08-21T02:58:09;5.17;;;3.13;;
17189;SDS011;8710;49.880;8.272;2022-08-21T03:00:37;10.50;;;3.53;;
17189;SDS011;8710;49.880;8.272;2022-08-21T03:03:05;6.20;;;3.20;;
17189;SDS011;8710;49.880;8.272;2022-08-21T03:05:34;5.67;;;3.50;;
17189;SDS011;8710;49.880;8.272;2022-08-21T03:08:02;10.47;;;3.93;;
17189;SDS011;8710;49.880;8.272;2022-08-21T03:10:34;6.50;;;3.50;;
17189;SDS011;8710;49.880;8.272;2022-08-21T03:13:02;8.30;;;3.77;;
17189;SDS011;8710;49.880;8.272;2022-08-21T03:15:29;6.27;;;3.77;;
17189;SDS011;8710;49.880;8.272;2022-08-21T03:17:56;5.40;;;3.40;;
17189;SDS011;8710;49.880;8.272;2022-08-21T03:20:25;8.70;;;3.73;;
17189;SDS011;8710;49.880;8.272;2022-08-21T03:22:55;6.60;;;3.50;;
17189;SDS011;8710;49.880;8.272;2022-08-21T03:25:23;9.33;;;4.00;;
17189;SDS011;8710;49.880;8.272;2022-08-21T03:27:51;5.97;;;3.43;;
17189;SDS011;8710;49.880;8.272;2022-08-21T03:30:19;9.17;;;4.10;;
17189;SDS011;8710;49.880;8.272;2022-08-21T03:32:47;6.67;;;3.57;;
17189;SDS011;8710;49.880;8.272;2022-08-21T03:35:14;7.30;;;3.80;;
17189;SDS011;8710;49.880;8.272;2022-08-21T03:37:41;5.87;;;3.53;;
17189;SDS011;8710;49.880;8.272;2022-08-21T03:40:16;6.67;;;3.60;;
17189;SDS011;8710;49.880;8.272;2022-08-21T03:42:45;8.03;;;4.00;;
17189;SDS011;8710;49.880;8.272;2022-08-21T03:45:14;9.50;;;3.83;;
17189;SDS011;8710;49.880;8.272;2022-08-21T03:47:50;5.73;;;3.57;;
17189;SDS011;8710;49.880;8.272;2022-08-21T03:50:18;6.00;;;3.27;;
17189;SDS011;8710;49.880;8.272;2022-08-21T03:52:45;7.53;;;3.40;;
17189;SDS011;8710;49.880;8.272;2022-08-21T03:55:13;7.53;;;3.53;;
17189;SDS011;8710;49.880;8.272;2022-08-21T03:57:40;6.70;;;3.47;;
17189;SDS011;8710;49.880;8.272;2022-08-21T04:00:08;6.70;;;3.47;;
17189;SDS011;8710;49.880;8.272;2022-08-21T04:02:36;9.47;;;3.80;;
17189;SDS011;8710;49.880;8.272;2022-08-21T04:05:04;6.00;;;3.40;;
17189;SDS011;8710;49.880;8.272;2022-08-21T04:07:32;6.80;;;3.67;;
17189;SDS011;8710;49.880;8.272;2022-08-21T04:09:59;6.90;;;3.47;;
17189;SDS011;8710;49.880;8.272;2022-08-21T04:12:27;8.57;;;4.13;;
17189;SDS011;8710;49.880;8.272;2022-08-21T04:14:55;7.30;;;3.80;;
17189;SDS011;8710;49.880;8.272;2022-08-21T04:17:22;8.53;;;3.70;;
17189;SDS011;8710;49.880;8.272;2022-08-21T04:19:48;11.80;;;3.67;;
17189;SDS011;8710;49.880;8.272;2022-08-21T04:22:16;5.27;;;3.80;;
17189;SDS011;8710;49.880;8.272;2022-08-21T04:24:43;7.10;;;3.80;;
17189;SDS011;8710;49.880;8.272;2022-08-21T04:27:10;5.97;;;3.50;;
17189;SDS011;8710;49.880;8.272;2022-08-21T04:29:39;7.10;;;3.77;;
17189;SDS011;8710;49.880;8.272;2022-08-21T04:32:06;6.17;;;3.20;;
17189;SDS011;8710;49.880;8.272;2022-08-21T04:34:32;6.07;;;3.37;;
17189;SDS011;8710;49.880;8.272;2022-08-21T04:36:59;7.13;;;3.97;;
17189;SDS011;8710;49.880;8.272;2022-08-21T04:39:26;6.63;;;4.10;;
17189;SDS011;8710;49.880;8.272;2022-08-21T04:41:53;8.73;;;3.77;;
17189;SDS011;8710;49.880;8.272;2022-08-21T04:44:21;7.10;;;3.90;;
17189;SDS011;8710;49.880;8.272;2022-08-21T04:46:49;8.80;;;4.07;;
17189;SDS011;8710;49.880;8.272;2022-08-21T04:49:16;8.13;;;3.80;;
17189;SDS011;8710;49.880;8.272;2022-08-21T04:51:43;7.17;;;3.67;;
17189;SDS011;8710;49.880;8.272;2022-08-21T04:54:12;8.63;;;3.77;;
17189;SDS011;8710;49.880;8.272;2022-08-21T04:56:42;7.83;;;4.23;;
17189;SDS011;8710;49.880;8.272;2022-08-21T04:59:13;5.47;;;3.70;;
17189;SDS011;8710;49.880;8.272;2022-08-21T05:01:45;7.33;;;3.70;;
17189;SDS011;8710;49.880;8.272;2022-08-21T05:04:14;8.33;;;4.47;;
17189;SDS011;8710;49.880;8.272;2022-08-21T05:06:44;8.90;;;4.20;;
17189;SDS011;8710;49.880;8.272;2022-08-21T05:09:13;6.03;;;3.80;;
17189;SDS011;8710;49.880;8.272;2022-08-21T05:11:42;6.30;;;4.17;;
17189;SDS011;8710;49.880;8.272;2022-08-21T05:14:10;9.13;;;4.17;;
17189;SDS011;8710;49.880;8.272;2022-08-21T05:16:38;6.33;;;3.70;;
17189;SDS011;8710;49.880;8.272;2022-08-21T05:19:06;7.70;;;4.27;;
17189;SDS011;8710;49.880;8.272;2022-08-21T05:21:35;8.37;;;4.17;;
17189;SDS011;8710;49.880;8.272;2022-08-21T05:24:05;4.77;;;3.80;;
17189;SDS011;8710;49.880;8.272;2022-08-21T05:26:33;9.50;;;3.97;;
17189;SDS011;8710;49.880;8.272;2022-08-21T05:29:01;6.50;;;3.70;;
17189;SDS011;8710;49.880;8.272;2022-08-21T05:31:28;10.13;;;4.60;;
17189;SDS011;8710;49.880;8.272;2022-08-21T05:33:55;8.63;;;4.13;;
17189;SDS011;8710;49.880;8.272;2022-08-21T05:36:22;6.97;;;4.00;;
17189;SDS011;8710;49.880;8.272;2022-08-21T05:38:50;6.27;;;3.40;;
17189;SDS011;8710;49.880;8.272;2022-08-21T05:41:17;5.57;;;3.37;;
17189;SDS011;8710;49.880;8.272;2022-08-21T05:43:45;9.37;;;3.80;;
17189;SDS011;8710;49.880;8.272;2022-08-21T05:46:12;7.43;;;3.17;;
17189;SDS011;8710;49.880;8.272;2022-08-21T05:48:39;6.53;;;3.77;;
17189;SDS011;8710;49.880;8.272;2022-08-21T05:51:06;8.00;;;3.63;;
17189;SDS011;8710;49.880;8.272;2022-08-21T05:53:35;8.97;;;4.03;;
17189;SDS011;8710;49.880;8.272;2022-08-21T05:56:04;5.90;;;3.57;;
17189;SDS011;8710;49.880;8.272;2022-08-21T05:58:32;8.43;;;3.57;;
17189;SDS011;8710;49.880;8.272;2022-08-21T06:01:00;5.80;;;3.40;;
17189;SDS011;8710;49.880;8.272;2022-08-21T06:03:28;7.50;;;3.50;;
17189;SDS011;8710;49.880;8.272;2022-08-21T06:05:56;8.10;;;3.33;;
17189;SDS011;8710;49.880;8.272;2022-08-21T06:08:23;7.47;;;3.60;;
17189;SDS011;8710;49.880;8.272;2022-08-21T06:10:51;5.03;;;3.57;;
17189;SDS011;8710;49.880;8.272;2022-08-21T06:13:21;6.50;;;3.70;;
17189;SDS011;8710;49.880;8.272;2022-08-21T06:15:48;7.17;;;3.50;;
17189;SDS011;8710;49.880;8.272;2022-08-21T06:18:16;8.10;;;3.67;;
17189;SDS011;8710;49.880;8.272;2022-08-21T06:20:44;5.77;;;3.27;;
17189;SDS011;8710;49.880;8.272;2022-08-21T06:23:11;6.53;;;3.50;;
17189;SDS011;8710;49.880;8.272;2022-08-21T06:25:38;8.03;;;3.37;;
17189;SDS011;8710;49.880;8.272;2022-08-21T06:28:06;7.47;;;3.13;;
17189;SDS011;8710;49.880;8.272;2022-08-21T06:30:35;6.70;;;3.40;;
17189;SDS011;8710;49.880;8.272;2022-08-21T06:33:03;6.43;;;3.47;;
17189;SDS011;8710;49.880;8.272;2022-08-21T06:35:31;8.23;;;3.50;;
17189;SDS011;8710;49.880;8.272;2022-08-21T06:37:58;5.37;;;3.13;;
17189;SDS011;8710;49.880;8.272;2022-08-21T06:40:25;5.53;;;3.13;;
17189;SDS011;8710;49.880;8.272;2022-08-21T06:42:52;8.97;;;3.50;;
17189;SDS011;8710;49.880;8.272;2022-08-21T06:45:19;5.23;;;3.30;;
17189;SDS011;8710;49.880;8.272;2022-08-21T06:47:48;5.70;;;3.17;;
17189;SDS011;8710;49.880;8.272;2022-08-21T06:50:14;7.47;;;3.57;;
17189;SDS011;8710;49.880;8.272;2022-08-21T06:52:41;8.17;;;3.20;;
17189;SDS011;8710;49.880;8.272;2022-08-21T06:55:08;7.90;;;3.63;;
17189;SDS011;8710;49.880;8.272;2022-08-21T06:57:36;5.80;;;3.50;;
17189;SDS011;8710;49.880;8.272;2022-08-21T07:00:03;5.80;;;3.50;;
17189;SDS011;8710;49.880;8.272;2022-08-21T07:02:32;6.40;;;3.15;;
17189;SDS011;8710;49.880;8.272;2022-08-21T07:05:00;6.13;;;3.35;;
17189;SDS011;8710;49.880;8.272;2022-08-21T07:07:27;4.68;;;2.78;;
17189;SDS011;8710;49.880;8.272;2022-08-21T07:09:54;9.43;;;3.30;;
17189;SDS011;8710;49.880;8.272;2022-08-21T07:12:21;6.07;;;3.38;;
17189;SDS011;8710;49.880;8.272;2022-08-21T07:14:48;5.00;;;3.22;;
17189;SDS011;8710;49.880;8.272;2022-08-21T07:17:14;5.45;;;3.30;;
17189;SDS011;8710;49.880;8.272;2022-08-21T07:19:41;4.63;;;3.05;;
17189;SDS011;8710;49.880;8.272;2022-08-21T07:22:10;5.32;;;3.10;;
17189;SDS011;8710;49.880;8.272;2022-08-21T07:24:37;5.63;;;3.13;;
17189;SDS011;8710;49.880;8.272;2022-08-21T07:27:05;5.95;;;3.55;;
17189;SDS011;8710;49.880;8.272;2022-08-21T07:29:31;9.13;;;3.97;;
17189;SDS011;8710;49.880;8.272;2022-08-21T07:31:59;5.38;;;3.45;;
17189;SDS011;8710;49.880;8.272;2022-08-21T07:34:26;7.55;;;3.53;;
17189;SDS011;8710;49.880;8.272;2022-08-21T07:36:53;6.25;;;3.50;;
17189;SDS011;8710;49.880;8.272;2022-08-21T07:39:21;5.63;;;3.55;;
17189;SDS011;8710;49.880;8.272;2022-08-21T07:41:48;6.65;;;3.55;;
17189;SDS011;8710;49.880;8.272;2022-08-21T07:44:15;4.65;;;3.40;;
17189;SDS011;8710;49.880;8.272;2022-08-21T07:46:42;5.72;;;3.75;;
17189;SDS011;8710;49.880;8.272;2022-08-21T07:49:09;6.68;;;3.42;;
17189;SDS011;8710;49.880;8.272;2022-08-21T07:51:36;4.63;;;3.30;;
17189;SDS011;8710;49.880;8.272;2022-08-21T07:54:03;5.75;;;4.10;;
17189;SDS011;8710;49.880;8.272;2022-08-21T07:56:32;6.63;;;4.10;;
17189;SDS011;8710;49.880;8.272;2022-08-21T07:58:59;4.75;;;3.40;;
17189;SDS011;8710;49.880;8.272;2022-08-21T08:01:27;5.70;;;3.45;;
17189;SDS011;8710;49.880;8.272;2022-08-21T08:03:55;6.70;;;4.03;;
17189;SDS011;8710;49.880;8.272;2022-08-21T08:06:22;5.03;;;3.75;;
17189;SDS011;8710;49.880;8.272;2022-08-21T08:08:51;5.78;;;3.67;;
17189;SDS011;8710;49.880;8.272;2022-08-21T08:11:18;7.03;;;4.32;;
17189;SDS011;8710;49.880;8.272;2022-08-21T08:13:47;4.32;;;3.28;;
17189;SDS011;8710;49.880;8.272;2022-08-21T08:16:15;4.60;;;3.80;;
17189;SDS011;8710;49.880;8.272;2022-08-21T08:18:42;6.25;;;4.28;;
17189;SDS011;8710;49.880;8.272;2022-08-21T08:21:10;4.88;;;4.05;;
17189;SDS011;8710;49.880;8.272;2022-08-21T08:23:40;6.45;;;4.55;;
17189;SDS011;8710;49.880;8.272;2022-08-21T08:26:10;5.22;;;4.40;;
17189;SDS011;8710;49.880;8.272;2022-08-21T08:28:37;5.55;;;4.50;;
17189;SDS011;8710;49.880;8.272;2022-08-21T08:31:05;6.95;;;3.97;;
17189;SDS011;8710;49.880;8.272;2022-08-21T08:33:32;6.07;;;4.28;;
17189;SDS011;8710;49.880;8.272;2022-08-21T08:35:59;6.32;;;3.75;;
17189;SDS011;8710;49.880;8.272;2022-08-21T08:38:26;5.50;;;4.45;;
17189;SDS011;8710;49.880;8.272;2022-08-21T08:40:55;5.07;;;4.28;;
17189;SDS011;8710;49.880;8.272;2022-08-21T08:43:27;5.85;;;4.07;;
17189;SDS011;8710;49.880;8.272;2022-08-21T08:45:56;6.13;;;3.83;;
17189;SDS011;8710;49.880;8.272;2022-08-21T08:48:34;6.43;;;3.67;;
17189;SDS011;8710;49.880;8.272;2022-08-21T08:51:11;4.82;;;3.85;;
17189;SDS011;8710;49.880;8.272;2022-08-21T08:53:47;4.65;;;3.72;;
17189;SDS011;8710;49.880;8.272;2022-08-21T08:56:20;5.10;;;3.65;;
17189;SDS011;8710;49.880;8.272;2022-08-21T08:58:49;5.70;;;4.10;;
17189;SDS011;8710;49.880;8.272;2022-08-21T09:01:19;4.32;;;3.60;;
17189;SDS011;8710;49.880;8.272;2022-08-21T09:03:48;4.50;;;3.38;;
17189;SDS011;8710;49.880;8.272;2022-08-21T09:06:27;4.28;;;3.22;;
17189;SDS011;8710;49.880;8.272;2022-08-21T09:09:02;5.32;;;3.40;;
17189;SDS011;8710;49.880;8.272;2022-08-21T09:11:41;5.45;;;3.25;;
17189;SDS011;8710;49.880;8.272;2022-08-21T09:14:21;6.05;;;2.83;;
17189;SDS011;8710;49.880;8.272;2022-08-21T09:16:59;4.78;;;2.75;;
17189;SDS011;8710;49.880;8.272;2022-08-21T09:19:39;8.77;;;3.08;;
17189;SDS011;8710;49.880;8.272;2022-08-21T09:22:17;7.43;;;3.75;;
17189;SDS011;8710;49.880;8.272;2022-08-21T09:24:53;4.85;;;3.00;;
17189;SDS011;8710;49.880;8.272;2022-08-21T09:27:28;6.53;;;3.10;;
17189;SDS011;8710;49.880;8.272;2022-08-21T09:29:57;6.80;;;3.55;;
17189;SDS011;8710;49.880;8.272;2022-08-21T09:32:26;4.82;;;2.97;;
17189;SDS011;8710;49.880;8.272;2022-08-21T09:35:00;6.13;;;3.20;;
17189;SDS011;8710;49.880;8.272;2022-08-21T09:37:30;5.57;;;3.53;;
17189;SDS011;8710;49.880;8.272;2022-08-21T09:39:59;8.55;;;3.40;;
17189;SDS011;8710;49.880;8.272;2022-08-21T09:42:31;5.50;;;3.58;;
17189;SDS011;8710;49.880;8.272;2022-08-21T09:45:05;5.85;;;3.55;;
17189;SDS011;8710;49.880;8.272;2022-08-21T09:47:37;5.40;;;3.15;;
17189;SDS011;8710;49.880;8.272;2022-08-21T09:50:09;4.10;;;2.60;;
17189;SDS011;8710;49.880;8.272;2022-08-21T09:52:42;5.38;;;2.97;;
17189;SDS011;8710;49.880;8.272;2022-08-21T09:55:15;4.57;;;2.80;;
17189;SDS011;8710;49.880;8.272;2022-08-21T09:57:59;4.90;;;2.95;;
17189;SDS011;8710;49.880;8.272;2022-08-21T10:00:27;5.93;;;2.97;;
17189;SDS011;8710;49.880;8.272;2022-08-21T10:03:07;5.90;;;2.90;;
17189;SDS011;8710;49.880;8.272;2022-08-21T10:05:37;5.15;;;2.65;;
17189;SDS011;8710;49.880;8.272;2022-08-21T10:08:06;5.70;;;3.03;;
17189;SDS011;8710;49.880;8.272;2022-08-21T10:10:43;4.72;;;2.70;;
17189;SDS011;8710;49.880;8.272;2022-08-21T10:13:11;3.92;;;2.65;;
17189;SDS011;8710;49.880;8.272;2022-08-21T10:15:44;4.03;;;2.80;;
17189;SDS011;8710;49.880;8.272;2022-08-21T10:18:18;3.63;;;2.50;;
17189;SDS011;8710;49.880;8.272;2022-08-21T10:20:54;5.07;;;2.78;;
17189;SDS011;8710;49.880;8.272;2022-08-21T10:23:39;5.90;;;3.20;;
17189;SDS011;8710;49.880;8.272;2022-08-21T10:26:20;7.90;;;2.90;;
17189;SDS011;8710;49.880;8.272;2022-08-21T10:29:03;4.80;;;2.78;;
17189;SDS011;8710;49.880;8.272;2022-08-21T10:31:37;5.18;;;2.90;;
17189;SDS011;8710;49.880;8.272;2022-08-21T10:34:15;4.20;;;2.72;;
17189;SDS011;8710;49.880;8.272;2022-08-21T10:36:58;4.38;;;3.00;;
17189;SDS011;8710;49.880;8.272;2022-08-21T10:39:33;4.45;;;3.10;;
17189;SDS011;8710;49.880;8.272;2022-08-21T10:42:11;4.47;;;2.95;;
17189;SDS011;8710;49.880;8.272;2022-08-21T10:44:54;4.30;;;2.60;;
17189;SDS011;8710;49.880;8.272;2022-08-21T10:47:32;3.85;;;2.90;;
17189;SDS011;8710;49.880;8.272;2022-08-21T10:50:03;5.07;;;2.90;;
17189;SDS011;8710;49.880;8.272;2022-08-21T10:52:39;4.95;;;2.65;;
17189;SDS011;8710;49.880;8.272;2022-08-21T10:55:16;5.85;;;2.80;;
17189;SDS011;8710;49.880;8.272;2022-08-21T10:57:47;5.22;;;2.88;;
17189;SDS011;8710;49.880;8.272;2022-08-21T11:00:19;4.68;;;2.97;;
17189;SDS011;8710;49.880;8.272;2022-08-21T11:02:49;5.20;;;2.97;;
17189;SDS011;8710;49.880;8.272;2022-08-21T11:05:24;4.35;;;2.53;;
17189;SDS011;8710;49.880;8.272;2022-08-21T11:07:57;4.68;;;2.67;;
17189;SDS011;8710;49.880;8.272;2022-08-21T11:10:30;5.25;;;3.10;;
17189;SDS011;8710;49.880;8.272;2022-08-21T11:13:00;5.43;;;2.83;;
17189;SDS011;8710;49.880;8.272;2022-08-21T11:15:34;3.40;;;2.63;;
17189;SDS011;8710;49.880;8.272;2022-08-21T11:18:14;4.00;;;2.78;;
17189;SDS011;8710;49.880;8.272;2022-08-21T11:20:48;4.22;;;2.80;;
17189;SDS011;8710;49.880;8.272;2022-08-21T11:23:22;5.25;;;2.97;;
17189;SDS011;8710;49.880;8.272;2022-08-21T11:25:55;4.75;;;3.15;;
17189;SDS011;8710;49.880;8.272;2022-08-21T11:28:28;4.30;;;2.80;;
17189;SDS011;8710;49.880;8.272;2022-08-21T11:31:01;4.65;;;3.00;;
17189;SDS011;8710;49.880;8.272;2022-08-21T11:33:43;4.43;;;2.75;;
17189;SDS011;8710;49.880;8.272;2022-08-21T11:36:20;4.68;;;2.88;;
17189;SDS011;8710;49.880;8.272;2022-08-21T11:38:57;4.68;;;2.65;;
17189;SDS011;8710;49.880;8.272;2022-08-21T11:41:34;4.00;;;2.33;;
17189;SDS011;8710;49.880;8.272;2022-08-21T11:44:08;4.50;;;2.90;;
17189;SDS011;8710;49.880;8.272;2022-08-21T11:46:44;3.47;;;2.60;;
17189;SDS011;8710;49.880;8.272;2022-08-21T11:52:07;3.83;;;2.90;;
17189;SDS011;8710;49.880;8.272;2022-08-21T11:54:42;3.15;;;2.55;;
17189;SDS011;8710;49.880;8.272;2022-08-21T11:57:14;5.15;;;2.80;;
17189;SDS011;8710;49.880;8.272;2022-08-21T11:59:45;3.10;;;2.50;;
17189;SDS011;8710;49.880;8.272;2022-08-21T12:02:17;3.28;;;2.50;;
17189;SDS011;8710;49.880;8.272;2022-08-21T12:04:47;3.67;;;2.55;;
17189;SDS011;8710;49.880;8.272;2022-08-21T12:07:33;3.80;;;2.63;;
17189;SDS011;8710;49.880;8.272;2022-08-21T12:10:04;3.58;;;2.58;;
17189;SDS011;8710;49.880;8.272;2022-08-21T12:12:34;4.38;;;2.60;;
17189;SDS011;8710;49.880;8.272;2022-08-21T12:15:12;4.43;;;2.80;;
17189;SDS011;8710;49.880;8.272;2022-08-21T12:17:51;2.85;;;2.50;;
17189;SDS011;8710;49.880;8.272;2022-08-21T12:20:23;3.47;;;2.35;;
17189;SDS011;8710;49.880;8.272;2022-08-21T12:23:15;3.85;;;2.90;;
17189;SDS011;8710;49.880;8.272;2022-08-21T12:25:46;4.43;;;2.40;;
17189;SDS011;8710;49.880;8.272;2022-08-21T12:28:25;3.83;;;2.53;;
17189;SDS011;8710;49.880;8.272;2022-08-21T12:30:53;3.83;;;2.40;;
17189;SDS011;8710;49.880;8.272;2022-08-21T12:33:23;3.53;;;2.47;;
17189;SDS011;8710;49.880;8.272;2022-08-21T12:35:52;3.80;;;2.60;;
17189;SDS011;8710;49.880;8.272;2022-08-21T12:38:28;4.32;;;2.50;;
17189;SDS011;8710;49.880;8.272;2022-08-21T12:40:58;8.02;;;2.50;;
17189;SDS011;8710;49.880;8.272;2022-08-21T12:43:27;2.58;;;2.38;;
17189;SDS011;8710;49.880;8.272;2022-08-21T12:45:56;4.20;;;2.50;;
17189;SDS011;8710;49.880;8.272;2022-08-21T12:48:29;3.25;;;2.58;;
17189;SDS011;8710;49.880;8.272;2022-08-21T12:51:06;4.63;;;2.60;;
17189;SDS011;8710;49.880;8.272;2022-08-21T12:53:38;4.63;;;2.80;;
17189;SDS011;8710;49.880;8.272;2022-08-21T12:56:12;4.35;;;2.67;;
17189;SDS011;8710;49.880;8.272;2022-08-21T12:58:44;3.55;;;2.55;;
17189;SDS011;8710;49.880;8.272;2022-08-21T13:01:15;3.95;;;2.53;;
17189;SDS011;8710;49.880;8.272;2022-08-21T13:03:49;4.57;;;2.83;;
17189;SDS011;8710;49.880;8.272;2022-08-21T13:06:19;3.28;;;2.60;;
17189;SDS011;8710;49.880;8.272;2022-08-21T13:08:47;4.22;;;2.35;;
17189;SDS011;8710;49.880;8.272;2022-08-21T13:11:19;5.65;;;2.30;;
17189;SDS011;8710;49.880;8.272;2022-08-21T13:13:48;3.60;;;2.42;;
17189;SDS011;8710;49.880;8.272;2022-08-21T13:16:18;5.07;;;2.53;;
17189;SDS011;8710;49.880;8.272;2022-08-21T13:18:52;2.92;;;2.40;;
17189;SDS011;8710;49.880;8.272;2022-08-21T13:21:26;3.63;;;2.22;;
17189;SDS011;8710;49.880;8.272;2022-08-21T13:23:56;3.50;;;2.30;;
17189;SDS011;8710;49.880;8.272;2022-08-21T13:26:40;4.13;;;2.40;;
17189;SDS011;8710;49.880;8.272;2022-08-21T13:29:07;3.72;;;2.60;;
17189;SDS011;8710;49.880;8.272;2022-08-21T13:31:36;2.35;;;2.00;;
17189;SDS011;8710;49.880;8.272;2022-08-21T13:34:07;4.15;;;2.30;;
17189;SDS011;8710;49.880;8.272;2022-08-21T13:36:37;3.25;;;2.55;;
17189;SDS011;8710;49.880;8.272;2022-08-21T13:39:08;4.38;;;2.30;;
17189;SDS011;8710;49.880;8.272;2022-08-21T13:41:37;5.47;;;2.40;;
17189;SDS011;8710;49.880;8.272;2022-08-21T13:44:15;5.50;;;2.33;;
17189;SDS011;8710;49.880;8.272;2022-08-21T13:46:42;4.45;;;2.42;;
17189;SDS011;8710;49.880;8.272;2022-08-21T13:49:10;4.20;;;2.40;;
17189;SDS011;8710;49.880;8.272;2022-08-21T13:51:41;4.97;;;2.70;;
17189;SDS011;8710;49.880;8.272;2022-08-21T13:54:24;4.35;;;2.10;;
17189;SDS011;8710;49.880;8.272;2022-08-21T13:56:53;4.22;;;2.38;;
17189;SDS011;8710;49.880;8.272;2022-08-21T13:59:27;4.03;;;2.05;;
17189;SDS011;8710;49.880;8.272;2022-08-21T14:01:55;3.03;;;2.35;;
17189;SDS011;8710;49.880;8.272;2022-08-21T14:04:26;4.05;;;2.38;;
17189;SDS011;8710;49.880;8.272;2022-08-21T14:06:57;5.00;;;2.20;;
17189;SDS011;8710;49.880;8.272;2022-08-21T14:09:26;6.97;;;2.55;;
17189;SDS011;8710;49.880;8.272;2022-08-21T14:11:58;5.25;;;2.15;;
17189;SDS011;8710;49.880;8.272;2022-08-21T14:14:28;4.07;;;2.10;;
17189;SDS011;8710;49.880;8.272;2022-08-21T14:16:58;2.72;;;2.15;;
17189;SDS011;8710;49.880;8.272;2022-08-21T14:19:35;6.93;;;2.25;;
17189;SDS011;8710;49.880;8.272;2022-08-21T14:24:48;3.78;;;2.05;;
17189;SDS011;8710;49.880;8.272;2022-08-21T14:27:17;6.20;;;2.30;;
17189;SDS011;8710;49.880;8.272;2022-08-21T14:29:45;3.78;;;2.50;;
17189;SDS011;8710;49.880;8.272;2022-08-21T14:32:13;4.10;;;1.98;;
17189;SDS011;8710;49.880;8.272;2022-08-21T14:34:42;5.35;;;2.10;;
17189;SDS011;8710;49.880;8.272;2022-08-21T14:37:09;5.07;;;2.20;;
17189;SDS011;8710;49.880;8.272;2022-08-21T14:39:36;3.85;;;2.10;;
17189;SDS011;8710;49.880;8.272;2022-08-21T14:42:03;3.63;;;2.40;;
17189;SDS011;8710;49.880;8.272;2022-08-21T14:44:32;3.50;;;2.00;;
17189;SDS011;8710;49.880;8.272;2022-08-21T14:46:59;3.60;;;2.03;;
17189;SDS011;8710;49.880;8.272;2022-08-21T14:49:27;3.53;;;2.00;;
17189;SDS011;8710;49.880;8.272;2022-08-21T14:51:55;3.20;;;2.00;;
17189;SDS011;8710;49.880;8.272;2022-08-21T14:54:23;5.35;;;2.13;;
17189;SDS011;8710;49.880;8.272;2022-08-21T14:56:50;3.47;;;2.20;;
17189;SDS011;8710;49.880;8.272;2022-08-21T14:59:17;3.72;;;2.20;;
17189;SDS011;8710;49.880;8.272;2022-08-21T15:01:47;3.08;;;1.70;;
17189;SDS011;8710;49.880;8.272;2022-08-21T15:04:14;3.80;;;1.90;;
17189;SDS011;8710;49.880;8.272;2022-08-21T15:06:41;4.10;;;1.90;;
17189;SDS011;8710;49.880;8.272;2022-08-21T15:09:08;2.42;;;1.90;;
17189;SDS011;8710;49.880;8.272;2022-08-21T15:11:35;4.90;;;2.20;;
17189;SDS011;8710;49.880;8.272;2022-08-21T15:14:03;3.55;;;2.00;;
17189;SDS011;8710;49.880;8.272;2022-08-21T15:16:33;5.00;;;2.20;;
17189;SDS011;8710;49.880;8.272;2022-08-21T15:19:02;4.57;;;2.00;;
17189;SDS011;8710;49.880;8.272;2022-08-21T15:21:29;4.03;;;2.20;;